createdAt,value
2023-04-16T00:01:51.575Z,3.50
2023-04-16T00:04:18.911Z,3.23
2023-04-16T00:06:45.923Z,3.30
2023-04-16T00:09:12.787Z,3.13
2023-04-16T00:11:39.624Z,2.93
2023-04-16T00:14:06.422Z,3.00
2023-04-16T00:16:33.429Z,3.50
2023-04-16T00:19:00.292Z,3.07
2023-04-16T00:21:27.072Z,3.13
2023-04-16T00:23:54.073Z,2.97
2023-04-16T00:26:21.237Z,2.70
2023-04-16T00:28:48.089Z,2.70
2023-04-16T00:31:14.975Z,2.80
2023-04-16T00:33:41.821Z,2.17
2023-04-16T00:36:08.640Z,3.60
2023-04-16T00:38:35.537Z,2.70
2023-04-16T00:41:02.513Z,2.43
2023-04-16T00:43:30.734Z,3.63
2023-04-16T00:45:57.642Z,3.00
2023-04-16T00:48:28.071Z,3.13
2023-04-16T00:50:55.617Z,3.13
2023-04-16T00:53:23.565Z,2.57
2023-04-16T00:55:50.722Z,2.20
2023-04-16T00:58:17.550Z,3.03
2023-04-16T01:00:44.329Z,2.50
2023-04-16T01:03:11.481Z,2.17
2023-04-16T01:05:38.347Z,2.67
2023-04-16T01:08:05.435Z,2.60
2023-04-16T01:10:32.273Z,2.63
2023-04-16T01:12:59.056Z,2.50
2023-04-16T01:15:25.862Z,2.23
2023-04-16T01:17:52.727Z,3.20
2023-04-16T01:20:20.786Z,2.43
2023-04-16T01:22:47.583Z,3.13
2023-04-16T01:25:15.823Z,2.33
2023-04-16T01:27:43.787Z,2.40
2023-04-16T01:30:10.910Z,2.00
2023-04-16T01:32:37.909Z,2.40
2023-04-16T01:35:04.958Z,2.43
2023-04-16T01:37:31.995Z,2.20
2023-04-16T01:39:58.862Z,2.87
2023-04-16T01:42:25.794Z,2.33
2023-04-16T01:44:52.670Z,2.23
2023-04-16T01:47:19.561Z,2.40
2023-04-16T01:49:48.229Z,2.07
2023-04-16T01:52:15.094Z,2.43
2023-04-16T01:54:42.010Z,1.80
2023-04-16T01:57:09.193Z,2.20
2023-04-16T01:59:35.992Z,2.20
2023-04-16T02:02:11.204Z,3.57
2023-04-16T02:04:39.108Z,2.37
2023-04-16T02:07:07.359Z,2.23
2023-04-16T02:09:37.676Z,2.23
2023-04-16T02:12:04.581Z,2.50
2023-04-16T02:14:31.988Z,2.20
2023-04-16T02:16:58.944Z,2.13
2023-04-16T02:19:25.946Z,2.63
2023-04-16T02:21:53.217Z,2.57
2023-04-16T02:24:20.622Z,2.30
2023-04-16T02:26:47.781Z,2.27
2023-04-16T02:29:14.961Z,2.93
2023-04-16T02:31:41.957Z,2.30
2023-04-16T02:34:08.905Z,2.30
2023-04-16T02:36:35.791Z,2.60
2023-04-16T02:39:02.620Z,2.47
2023-04-16T02:41:29.443Z,2.20
2023-04-16T02:43:56.787Z,2.40
2023-04-16T02:46:23.631Z,2.40
2023-04-16T02:48:50.664Z,2.60
2023-04-16T02:51:17.464Z,2.80
2023-04-16T02:53:47.055Z,2.20
2023-04-16T02:56:13.916Z,2.60
2023-04-16T02:58:40.925Z,2.67
2023-04-16T03:01:07.753Z,2.93
2023-04-16T03:03:34.574Z,2.90
2023-04-16T03:06:01.390Z,2.30
2023-04-16T03:08:28.198Z,2.67
2023-04-16T03:10:54.986Z,2.43
2023-04-16T03:13:21.935Z,2.47
2023-04-16T03:15:49.970Z,2.33
2023-04-16T03:18:16.892Z,2.47
2023-04-16T03:20:43.965Z,2.93
2023-04-16T03:23:10.892Z,2.27
2023-04-16T03:25:40.510Z,1.90
2023-04-16T03:28:08.433Z,2.20
2023-04-16T03:30:35.247Z,2.23
2023-04-16T03:33:02.120Z,2.30
2023-04-16T03:35:28.944Z,2.13
2023-04-16T03:37:55.800Z,2.30
2023-04-16T03:40:22.637Z,2.37
2023-04-16T03:42:49.452Z,2.00
2023-04-16T03:45:16.648Z,2.20
2023-04-16T03:47:43.561Z,1.93
2023-04-16T03:50:11.736Z,1.90
2023-04-16T03:52:38.578Z,1.93
2023-04-16T03:55:06.019Z,2.80
2023-04-16T03:57:32.969Z,2.67
2023-04-16T03:59:59.843Z,2.13
2023-04-16T04:02:27.327Z,2.27
2023-04-16T04:04:55.411Z,2.67
2023-04-16T04:07:22.279Z,2.87
2023-04-16T04:09:49.172Z,1.73
2023-04-16T04:12:16.013Z,2.30
2023-04-16T04:14:42.906Z,2.27
2023-04-16T04:17:09.695Z,2.80
2023-04-16T04:19:37.799Z,2.70
2023-04-16T04:22:07.281Z,2.13
2023-04-16T04:24:34.075Z,2.57
2023-04-16T04:27:02.057Z,1.83
2023-04-16T04:29:29.068Z,3.27
2023-04-16T04:31:56.017Z,2.53
2023-04-16T04:34:22.889Z,2.43
2023-04-16T04:36:49.723Z,2.30
2023-04-16T04:39:16.714Z,1.73
2023-04-16T04:41:43.594Z,2.03
2023-04-16T04:44:11.479Z,2.17
2023-04-16T04:46:38.278Z,1.93
2023-04-16T04:49:05.137Z,2.43
2023-04-16T04:51:32.378Z,2.70
2023-04-16T04:53:59.238Z,2.57
2023-04-16T04:56:26.314Z,2.90
2023-04-16T04:58:53.150Z,2.00
2023-04-16T05:01:20.023Z,2.20
2023-04-16T05:03:46.976Z,2.37
2023-04-16T05:06:13.888Z,2.10
2023-04-16T05:08:40.787Z,2.57
2023-04-16T05:11:07.561Z,1.73
2023-04-16T05:13:34.480Z,2.03
2023-04-16T05:16:01.391Z,1.83
2023-04-16T05:18:30.492Z,1.87
2023-04-16T05:20:57.337Z,1.77
2023-04-16T05:23:24.221Z,2.17
2023-04-16T05:25:51.080Z,1.70
2023-04-16T05:28:17.862Z,2.00
2023-04-16T05:30:44.739Z,2.60
2023-04-16T05:33:11.564Z,2.10
2023-04-16T05:35:38.445Z,1.93
2023-04-16T05:38:06.224Z,1.90
2023-04-16T05:40:33.110Z,2.13
2023-04-16T05:43:00.113Z,1.90
2023-04-16T05:45:28.157Z,2.37
2023-04-16T05:47:55.150Z,2.63
2023-04-16T05:50:21.990Z,2.23
2023-04-16T05:52:48.839Z,2.03
2023-04-16T05:55:15.707Z,1.93
2023-04-16T05:57:42.537Z,2.87
2023-04-16T06:00:09.679Z,2.43
2023-04-16T06:02:36.596Z,2.70
2023-04-16T06:05:03.624Z,2.00
2023-04-16T06:07:30.598Z,2.47
2023-04-16T06:09:57.468Z,2.20
2023-04-16T06:12:24.258Z,1.73
2023-04-16T06:14:51.075Z,2.17
2023-04-16T06:17:17.929Z,2.03
2023-04-16T06:19:44.756Z,2.00
2023-04-16T06:22:11.563Z,2.03
2023-04-16T06:24:39.546Z,1.70
2023-04-16T06:27:06.389Z,2.17
2023-04-16T06:29:40.646Z,2.07
2023-04-16T06:32:08.152Z,1.93
2023-04-16T06:34:35.117Z,2.10
2023-04-16T06:37:01.926Z,2.10
2023-04-16T06:39:28.766Z,1.87
2023-04-16T06:41:56.085Z,2.40
2023-04-16T06:44:22.947Z,1.83
2023-04-16T06:46:51.006Z,2.60
2023-04-16T06:49:17.925Z,2.10
2023-04-16T06:51:45.059Z,2.07
2023-04-16T06:54:11.875Z,2.73
2023-04-16T06:56:38.742Z,2.13
2023-04-16T06:59:05.555Z,2.60
2023-04-16T07:01:32.441Z,2.70
2023-04-16T07:03:59.649Z,2.73
2023-04-16T07:06:27.217Z,2.50
2023-04-16T07:08:54.100Z,2.33
2023-04-16T07:11:21.272Z,2.73
2023-04-16T07:13:48.199Z,2.53
2023-04-16T07:16:14.992Z,2.30
2023-04-16T07:18:41.837Z,2.23
2023-04-16T07:21:08.657Z,2.43
2023-04-16T07:23:35.466Z,2.30
2023-04-16T07:26:02.262Z,2.43
2023-04-16T07:28:29.033Z,2.53
2023-04-16T07:30:55.956Z,2.70
2023-04-16T07:33:22.806Z,2.40
2023-04-16T07:35:49.819Z,2.07
2023-04-16T07:38:16.728Z,2.13
2023-04-16T07:40:43.503Z,3.17
2023-04-16T07:43:10.616Z,2.20
2023-04-16T07:45:37.507Z,2.60
2023-04-16T07:48:05.459Z,2.20
2023-04-16T07:50:32.417Z,2.67
2023-04-16T07:52:59.268Z,2.47
2023-04-16T07:55:26.361Z,2.40
2023-04-16T07:57:53.151Z,2.43
2023-04-16T08:00:19.967Z,2.10
2023-04-16T08:02:46.897Z,2.50
2023-04-16T08:05:13.921Z,2.70
2023-04-16T08:07:40.747Z,2.30
2023-04-16T08:10:08.277Z,2.50
2023-04-16T08:12:35.440Z,2.40
2023-04-16T08:15:02.292Z,2.53
2023-04-16T08:17:30.040Z,2.83
2023-04-16T08:19:57.013Z,2.00
2023-04-16T08:22:23.914Z,2.57
2023-04-16T08:24:50.721Z,2.30
2023-04-16T08:27:19.055Z,2.87
2023-04-16T08:29:47.750Z,2.60
2023-04-16T08:32:14.570Z,2.50
2023-04-16T08:34:42.066Z,3.50
2023-04-16T08:37:09.291Z,3.20
2023-04-16T08:39:36.207Z,3.03
2023-04-16T08:42:04.826Z,3.17
2023-04-16T08:44:36.161Z,2.50
2023-04-16T08:47:03.036Z,2.60
2023-04-16T08:49:29.867Z,2.77
2023-04-16T08:51:56.997Z,3.50
2023-04-16T08:54:39.193Z,3.10
2023-04-16T08:57:06.873Z,2.83
2023-04-16T08:59:33.698Z,3.30
2023-04-16T09:02:00.585Z,2.90
2023-04-16T09:04:30.783Z,3.43
2023-04-16T09:06:58.214Z,2.87
2023-04-16T09:09:26.562Z,2.60
2023-04-16T09:11:54.120Z,3.20
2023-04-16T09:14:22.116Z,2.63
2023-04-16T09:16:49.620Z,3.00
2023-04-16T09:19:16.518Z,2.87
2023-04-16T09:21:44.545Z,3.27
2023-04-16T09:24:11.370Z,3.20
2023-04-16T09:26:38.793Z,2.40
2023-04-16T09:29:05.836Z,3.13
2023-04-16T09:31:32.771Z,2.83
2023-04-16T09:34:02.906Z,2.60
2023-04-16T09:36:29.861Z,3.00
2023-04-16T09:38:58.084Z,3.03
2023-04-16T09:41:27.279Z,3.40
2023-04-16T09:43:55.955Z,2.60
2023-04-16T09:46:23.889Z,2.53
2023-04-16T09:48:51.184Z,2.93
2023-04-16T09:51:17.988Z,3.27
2023-04-16T09:53:44.800Z,3.50
2023-04-16T09:56:11.776Z,2.80
2023-04-16T09:58:38.762Z,2.60
2023-04-16T10:01:08.187Z,2.17
2023-04-16T10:03:36.385Z,3.47
2023-04-16T10:06:16.226Z,2.93
2023-04-16T10:08:50.385Z,3.50
2023-04-16T10:11:21.045Z,3.17
2023-04-16T10:13:47.848Z,3.53
2023-04-16T10:16:14.696Z,3.50
2023-04-16T10:18:43.475Z,3.23
2023-04-16T10:21:13.156Z,3.30
2023-04-16T10:23:40.370Z,3.03
2023-04-16T10:26:07.260Z,3.47
2023-04-16T10:28:35.742Z,3.43
2023-04-16T10:31:07.357Z,3.30
2023-04-16T10:33:35.797Z,3.77
2023-04-16T10:36:12.447Z,2.67
2023-04-16T10:38:46.037Z,3.13
2023-04-16T10:41:12.972Z,3.80
2023-04-16T10:43:41.490Z,3.37
2023-04-16T10:46:35.057Z,2.70
2023-04-16T10:49:03.169Z,2.93
2023-04-16T10:51:31.738Z,3.00
2023-04-16T10:54:14.647Z,3.97
2023-04-16T10:56:41.468Z,2.70
2023-04-16T10:59:10.510Z,2.63
2023-04-16T11:01:42.805Z,3.10
2023-04-16T11:04:22.301Z,2.97
2023-04-16T11:07:11.171Z,2.80
2023-04-16T11:09:53.795Z,3.20
2023-04-16T11:12:21.500Z,3.43
2023-04-16T11:14:58.171Z,3.20
2023-04-16T11:17:30.826Z,3.07
2023-04-16T11:19:58.728Z,3.70
2023-04-16T11:22:25.611Z,2.90
2023-04-16T11:24:56.330Z,2.90
2023-04-16T11:27:24.286Z,3.43
2023-04-16T11:30:01.978Z,3.87
2023-04-16T11:32:31.595Z,2.97
2023-04-16T11:35:00.033Z,3.50
2023-04-16T11:37:36.774Z,3.00
2023-04-16T11:40:07.190Z,3.20
2023-04-16T11:42:37.225Z,3.13
2023-04-16T11:45:04.866Z,3.13
2023-04-16T11:47:32.054Z,3.33
2023-04-16T11:49:59.180Z,3.20
2023-04-16T11:52:31.329Z,4.47
2023-04-16T11:54:58.837Z,3.97
2023-04-16T11:57:26.542Z,3.60
2023-04-16T12:00:02.185Z,3.37
2023-04-16T12:02:37.118Z,3.17
2023-04-16T12:05:05.066Z,3.60
2023-04-16T12:07:32.049Z,3.50
2023-04-16T12:10:08.241Z,3.07
2023-04-16T12:12:35.513Z,3.70
2023-04-16T12:15:03.890Z,3.40
2023-04-16T12:17:35.222Z,3.50
2023-04-16T12:20:12.351Z,2.87
2023-04-16T12:22:40.367Z,3.73
2023-04-16T12:25:14.460Z,4.13
2023-04-16T12:27:51.439Z,2.53
2023-04-16T12:30:23.854Z,3.60
2023-04-16T12:32:52.221Z,3.20
2023-04-16T12:35:34.574Z,3.73
2023-04-16T12:38:01.595Z,2.87
2023-04-16T12:40:28.509Z,2.97
2023-04-16T12:42:55.761Z,3.17
2023-04-16T12:45:22.981Z,3.50
2023-04-16T12:47:50.704Z,3.33
2023-04-16T12:50:17.826Z,2.83
2023-04-16T12:52:44.873Z,3.60
2023-04-16T12:55:12.152Z,3.23
2023-04-16T12:57:39.037Z,3.00
2023-04-16T13:00:06.809Z,3.43
2023-04-16T13:02:34.199Z,3.43
2023-04-16T13:05:01.554Z,2.80
2023-04-16T13:07:29.045Z,3.30
2023-04-16T13:09:56.008Z,3.10
2023-04-16T13:12:22.815Z,3.00
2023-04-16T13:14:49.644Z,4.30
2023-04-16T13:17:16.734Z,3.23
2023-04-16T13:19:43.656Z,3.20
2023-04-16T13:22:10.547Z,2.70
2023-04-16T13:24:37.583Z,3.33
2023-04-16T13:27:04.629Z,3.20
2023-04-16T13:29:31.473Z,3.47
2023-04-16T13:31:58.280Z,3.03
2023-04-16T13:34:25.139Z,3.17
2023-04-16T13:36:51.970Z,2.90
2023-04-16T13:39:19.290Z,2.47
2023-04-16T13:41:46.195Z,2.00
2023-04-16T13:44:13.061Z,2.87
2023-04-16T13:46:39.913Z,2.80
2023-04-16T13:49:07.047Z,2.90
2023-04-16T13:51:33.900Z,2.47
2023-04-16T13:54:00.758Z,2.90
2023-04-16T13:56:27.689Z,2.50
2023-04-16T13:58:54.456Z,2.90
2023-04-16T14:01:21.851Z,3.50
2023-04-16T14:03:49.575Z,2.67
2023-04-16T14:06:18.147Z,3.00
2023-04-16T14:08:45.844Z,2.73
2023-04-16T14:11:12.627Z,2.80
2023-04-16T14:13:39.402Z,3.20
2023-04-16T14:16:06.477Z,3.00
2023-04-16T14:18:33.324Z,2.50
2023-04-16T14:21:02.116Z,3.33
2023-04-16T14:23:29.026Z,3.37
2023-04-16T14:25:56.205Z,2.37
2023-04-16T14:28:23.037Z,3.23
2023-04-16T14:30:49.835Z,2.40
2023-04-16T14:33:16.632Z,2.97
2023-04-16T14:35:43.577Z,2.70
2023-04-16T14:38:11.086Z,2.57
2023-04-16T14:40:37.871Z,2.73
2023-04-16T14:43:04.703Z,2.30
2023-04-16T14:45:32.441Z,2.50
2023-04-16T14:47:59.366Z,2.43
2023-04-16T14:50:26.476Z,2.93
2023-04-16T14:52:54.588Z,2.40
2023-04-16T14:55:21.636Z,2.67
2023-04-16T14:57:48.466Z,2.20
2023-04-16T15:00:17.602Z,2.23
2023-04-16T15:02:45.133Z,2.37
2023-04-16T15:05:12.005Z,2.20
2023-04-16T15:07:38.873Z,2.73
2023-04-16T15:10:07.407Z,2.07
2023-04-16T15:12:34.244Z,3.00
2023-04-16T15:15:01.073Z,2.40
2023-04-16T15:17:27.958Z,3.13
2023-04-16T15:19:54.873Z,2.90
2023-04-16T15:22:21.681Z,2.30
2023-04-16T15:24:49.753Z,2.67
2023-04-16T15:27:17.804Z,2.37
2023-04-16T15:29:46.664Z,3.00
2023-04-16T15:32:13.445Z,2.60
2023-04-16T15:34:41.638Z,2.73
2023-04-16T15:37:09.656Z,3.00
2023-04-16T15:39:37.706Z,3.03
2023-04-16T15:42:07.342Z,2.87
2023-04-16T15:44:34.413Z,3.03
2023-04-16T15:47:01.364Z,2.37
2023-04-16T15:49:28.268Z,2.87
2023-04-16T15:51:55.591Z,3.27
2023-04-16T15:54:22.474Z,2.87
2023-04-16T15:56:49.506Z,2.63
2023-04-16T15:59:16.892Z,2.50
2023-04-16T16:01:43.764Z,3.23
2023-04-16T16:04:10.692Z,2.70
2023-04-16T16:06:38.189Z,2.47
2023-04-16T16:09:05.072Z,3.33
2023-04-16T16:11:32.705Z,3.07
2023-04-16T16:14:02.820Z,2.33
2023-04-16T16:16:29.662Z,2.43
2023-04-16T16:18:56.499Z,2.43
2023-04-16T16:21:23.388Z,2.60
2023-04-16T16:23:50.223Z,2.83
2023-04-16T16:26:17.398Z,2.17
2023-04-16T16:28:44.764Z,2.47
2023-04-16T16:31:12.524Z,2.33
2023-04-16T16:33:40.485Z,2.20
2023-04-16T16:36:10.871Z,2.73
2023-04-16T16:38:38.209Z,2.67
2023-04-16T16:41:05.029Z,2.27
2023-04-16T16:43:31.946Z,2.07
2023-04-16T16:45:58.762Z,2.60
2023-04-16T16:48:25.658Z,2.37
2023-04-16T16:50:52.426Z,2.57
2023-04-16T16:53:19.233Z,2.47
2023-04-16T16:55:46.049Z,2.50
2023-04-16T16:58:12.835Z,2.77
2023-04-16T17:00:39.731Z,2.73
2023-04-16T17:03:06.804Z,2.60
2023-04-16T17:05:33.679Z,3.03
2023-04-16T17:08:00.514Z,3.00
2023-04-16T17:10:27.491Z,3.20
2023-04-16T17:12:54.300Z,3.07
2023-04-16T17:15:21.901Z,2.77
2023-04-16T17:17:49.052Z,2.47
2023-04-16T17:20:16.077Z,2.57
2023-04-16T17:22:43.058Z,2.60
2023-04-16T17:25:10.181Z,2.97
2023-04-16T17:27:37.061Z,2.60
2023-04-16T17:30:05.534Z,2.10
2023-04-16T17:32:32.720Z,2.30
2023-04-16T17:35:00.761Z,2.83
2023-04-16T17:37:27.773Z,2.47
2023-04-16T17:39:54.591Z,2.90
2023-04-16T17:42:21.713Z,2.90
2023-04-16T17:44:48.613Z,2.60
2023-04-16T17:47:15.411Z,2.93
2023-04-16T17:49:42.297Z,3.23
2023-04-16T17:52:09.180Z,2.67
2023-04-16T17:54:36.042Z,3.20
2023-04-16T17:57:02.986Z,2.20
2023-04-16T17:59:29.802Z,2.47
2023-04-16T18:01:56.778Z,2.57
2023-04-16T18:04:23.752Z,3.23
2023-04-16T18:06:51.082Z,2.93
2023-04-16T18:09:19.351Z,3.00
2023-04-16T18:11:46.203Z,3.00
2023-04-16T18:14:19.973Z,3.10
2023-04-16T18:16:47.857Z,3.87
2023-04-16T18:19:15.941Z,3.00
2023-04-16T18:21:43.213Z,2.57
2023-04-16T18:24:10.699Z,2.57
2023-04-16T18:26:37.785Z,2.60
2023-04-16T18:29:05.500Z,3.00
2023-04-16T18:31:32.482Z,2.60
2023-04-16T18:33:59.478Z,2.77
2023-04-16T18:36:27.098Z,2.80
2023-04-16T18:41:24.358Z,2.83
2023-04-16T18:43:51.238Z,3.30
2023-04-16T18:46:19.084Z,2.50
2023-04-16T18:48:45.981Z,3.03
2023-04-16T18:51:14.903Z,2.73
2023-04-16T18:53:44.522Z,3.00
2023-04-16T18:56:11.704Z,2.83
2023-04-16T18:58:38.542Z,2.70
2023-04-16T19:01:07.865Z,2.60
2023-04-16T19:03:34.890Z,2.40
2023-04-16T19:06:01.975Z,2.60
2023-04-16T19:08:28.789Z,2.60
2023-04-16T19:10:55.655Z,2.60
2023-04-16T19:13:22.489Z,2.60
2023-04-16T19:15:49.313Z,2.70
2023-04-16T19:18:16.162Z,2.70
2023-04-16T19:20:43.017Z,2.50
2023-04-16T19:23:09.845Z,2.47
2023-04-16T19:25:36.682Z,2.60
2023-04-16T19:28:03.944Z,4.93
2023-04-16T19:30:31.009Z,2.43
2023-04-16T19:32:57.893Z,2.50
2023-04-16T19:35:24.819Z,2.97
2023-04-16T19:37:51.753Z,2.87
2023-04-16T19:40:18.624Z,3.27
2023-04-16T19:42:45.540Z,2.87
2023-04-16T19:45:12.366Z,3.17
2023-04-16T19:47:39.294Z,3.30
2023-04-16T19:50:06.697Z,2.80
2023-04-16T19:52:38.748Z,3.20
2023-04-16T19:55:06.745Z,3.67
2023-04-16T19:57:33.588Z,3.10
2023-04-16T20:00:00.523Z,3.27
2023-04-16T20:02:27.613Z,3.60
2023-04-16T20:04:54.464Z,3.10
2023-04-16T20:07:21.423Z,3.37
2023-04-16T20:09:48.518Z,3.60
2023-04-16T20:12:16.521Z,4.50
2023-04-16T20:14:43.913Z,3.73
2023-04-16T20:17:10.906Z,4.00
2023-04-16T20:19:40.739Z,3.10
2023-04-16T20:22:08.594Z,3.33
2023-04-16T20:24:35.381Z,3.40
2023-04-16T20:27:02.221Z,3.57
2023-04-16T20:29:29.035Z,3.90
2023-04-16T20:31:55.868Z,3.67
2023-04-16T20:34:22.710Z,3.87
2023-04-16T20:36:49.526Z,3.17
2023-04-16T20:39:20.313Z,3.10
2023-04-16T20:41:56.708Z,3.07
2023-04-16T20:44:26.471Z,3.00
2023-04-16T20:46:57.129Z,3.37
2023-04-16T20:49:25.673Z,3.30
2023-04-16T20:51:52.503Z,3.17
2023-04-16T20:54:19.329Z,3.63
2023-04-16T20:56:46.803Z,4.47
2023-04-16T20:59:13.848Z,3.83
2023-04-16T21:01:41.801Z,3.67
2023-04-16T21:04:08.711Z,3.10
2023-04-16T21:06:38.710Z,3.10
2023-04-16T21:09:06.098Z,3.00
2023-04-16T21:11:34.757Z,3.20
2023-04-16T21:14:04.586Z,3.03
2023-04-16T21:16:31.733Z,3.17
2023-04-16T21:18:58.817Z,3.20
2023-04-16T21:21:27.437Z,3.03
2023-04-16T21:23:54.389Z,3.30
2023-04-16T21:26:21.297Z,3.40
2023-04-16T21:28:48.304Z,3.67
2023-04-16T21:31:15.202Z,3.27
2023-04-16T21:33:42.042Z,4.03
2023-04-16T21:36:08.973Z,3.43
2023-04-16T21:38:35.845Z,3.40
2023-04-16T21:41:02.658Z,3.47
2023-04-16T21:43:32.109Z,3.30
2023-04-16T21:45:59.608Z,3.20
2023-04-16T21:48:27.090Z,2.90
2023-04-16T21:50:58.233Z,3.50
2023-04-16T21:53:25.990Z,4.17
2023-04-16T21:55:52.840Z,3.17
2023-04-16T21:58:19.700Z,3.23
2023-04-16T22:00:47.577Z,3.50
2023-04-16T22:03:17.492Z,4.40
2023-04-16T22:05:46.034Z,3.87
2023-04-16T22:08:23.914Z,4.30
2023-04-16T22:10:51.931Z,4.10
2023-04-16T22:13:18.797Z,5.10
2023-04-16T22:15:46.102Z,5.10
2023-04-16T22:18:12.923Z,4.27
2023-04-16T22:20:39.881Z,4.33
2023-04-16T22:23:06.941Z,4.90
2023-04-16T22:25:34.871Z,5.77
2023-04-16T22:28:01.782Z,5.53
2023-04-16T22:30:28.654Z,5.67
2023-04-16T22:32:55.530Z,5.70
2023-04-16T22:35:22.383Z,5.87
2023-04-16T22:37:49.181Z,4.60
2023-04-16T22:40:16.683Z,5.60
2023-04-16T22:42:43.524Z,6.37
2023-04-16T22:45:10.822Z,6.53
2023-04-16T22:47:37.682Z,6.13
2023-04-16T22:50:05.010Z,5.23
2023-04-16T22:52:31.910Z,6.47
2023-04-16T22:54:58.858Z,7.13
2023-04-16T22:57:26.210Z,6.40
2023-04-16T22:59:53.285Z,6.53
2023-04-16T23:02:20.939Z,6.73
2023-04-16T23:04:48.088Z,6.63
2023-04-16T23:07:15.600Z,6.00
2023-04-16T23:09:42.713Z,5.87
2023-04-16T23:12:09.579Z,6.20
2023-04-16T23:14:36.979Z,7.17
2023-04-16T23:17:03.903Z,7.57
2023-04-16T23:19:31.767Z,7.23
2023-04-16T23:21:58.834Z,7.40
2023-04-16T23:24:25.703Z,7.20
2023-04-16T23:26:52.773Z,6.50
2023-04-16T23:29:20.771Z,7.57
2023-04-16T23:31:47.911Z,7.50
2023-04-16T23:34:14.792Z,7.97
2023-04-16T23:36:42.686Z,8.13
2023-04-16T23:39:09.794Z,7.60
2023-04-16T23:41:36.842Z,7.30
2023-04-16T23:44:04.086Z,8.63
2023-04-16T23:46:31.982Z,8.13
2023-04-16T23:48:58.980Z,8.13
2023-04-16T23:51:26.625Z,7.70
2023-04-16T23:53:53.520Z,7.67
2023-04-16T23:56:20.435Z,9.27
2023-04-16T23:58:47.213Z,8.37
